Time;durP1;ratioP1;P1;durP2;ratioP2;P2;SDS_P1;SDS_P2;PMS_P1;PMS_P2;Temp;Humidity;BMP_temperature;BMP_pressure;BME280_temperature;BME280_humidity;BME280_pressure;Samples;Min_cycle;Max_cycle;Signal;HPM_P1;HPM_P2
2021/11/13 00:02:16;;;;;;;11.75;7.70;;;;;;;0.39;80.27;97015.22;5093028;28;20073;-65
2021/11/13 00:04:41;;;;;;;17.30;8.90;;;;;;;0.31;81.88;97016.84;5093052;28;20028;-65
2021/11/13 00:07:07;;;;;;;15.57;10.20;;;;;;;0.37;83.65;97014.34;5093071;28;20420;-65
2021/11/13 00:09:33;;;;;;;11.65;7.85;;;;;;;0.43;82.57;97018.69;5092960;28;20421;-63
2021/11/13 00:11:58;;;;;;;12.38;7.55;;;;;;;0.41;82.10;97010.06;5092969;28;20034;-64
2021/11/13 00:14:24;;;;;;;18.42;10.50;;;;;;;0.37;82.23;97015.19;5092977;28;20016;-63
2021/11/13 00:16:49;;;;;;;21.58;10.85;;;;;;;0.43;82.31;97014.41;5093092;28;20429;-66
2021/11/13 00:19:15;;;;;;;21.98;11.75;;;;;;;0.44;82.22;97012.69;5092653;28;20052;-66
2021/11/13 00:21:41;;;;;;;29.23;15.60;;;;;;;0.49;82.72;97016.19;5092831;28;20060;-66
2021/11/13 00:24:07;;;;;;;25.98;14.02;;;;;;;0.55;82.78;97010.22;5092922;28;20103;-63
2021/11/13 00:26:33;;;;;;;19.77;10.00;;;;;;;0.63;81.64;97013.72;5093254;28;20066;-66
2021/11/13 00:28:59;;;;;;;19.48;10.20;;;;;;;0.58;81.13;97011.13;5096842;28;20451;-67
2021/11/13 00:31:25;;;;;;;19.63;10.40;;;;;;;0.48;81.03;97017.03;5096758;28;20052;-65
2021/11/13 00:33:50;;;;;;;16.90;9.73;;;;;;;0.47;81.04;97012.72;5096728;28;20394;-68
2021/11/13 00:36:16;;;;;;;21.13;9.95;;;;;;;0.49;81.02;97017.03;5096755;28;20031;-66
2021/11/13 00:38:41;;;;;;;16.48;6.65;;;;;;;0.49;81.16;97016.19;5096725;28;20028;-64
2021/11/13 00:41:07;;;;;;;22.90;11.80;;;;;;;0.52;81.17;97011.06;5096532;28;20035;-64
2021/11/13 00:43:33;;;;;;;26.27;12.02;;;;;;;0.55;81.47;97010.22;5096646;28;20035;-67
2021/11/13 00:45:58;;;;;;;23.10;10.68;;;;;;;0.64;80.81;97002.59;5096608;28;20465;-63
2021/11/13 00:48:24;;;;;;;14.95;7.13;;;;;;;0.62;80.40;97001.69;5096542;28;20024;-64
2021/11/13 00:50:49;;;;;;;17.60;8.70;;;;;;;0.61;80.63;97005.97;5096426;28;20378;-63
2021/11/13 00:53:16;;;;;;;30.13;13.57;;;;;;;0.59;80.90;97002.53;5096458;28;20077;-68
2021/11/13 00:55:42;;;;;;;10.88;6.35;;;;;;;0.59;81.11;97002.53;5096451;28;20103;-65
2021/11/13 00:58:08;;;;;;;11.88;7.47;;;;;;;0.59;81.50;97004.25;5096293;28;20470;-64
2021/11/13 01:00:33;;;;;;;13.90;8.23;;;;;;;0.56;81.02;97010.22;5096299;28;20050;-64
2021/11/13 01:02:59;;;;;;;18.17;8.93;;;;;;;0.58;80.53;97008.56;5096233;28;20062;-64
2021/11/13 01:05:25;;;;;;;15.57;9.07;;;;;;;0.63;80.43;97009.44;5096103;28;20041;-67
2021/11/13 01:07:51;;;;;;;13.38;8.13;;;;;;;0.63;79.86;97006.00;5096117;28;20020;-68
2021/11/13 01:10:18;;;;;;;7.53;5.35;;;;;;;0.58;79.98;97003.41;5096192;28;20043;-69
2021/11/13 01:12:46;;;;;;;8.30;5.40;;;;;;;0.48;80.68;97001.59;5096058;28;20035;-63
2021/11/13 01:15:13;;;;;;;11.43;6.88;;;;;;;0.48;81.52;97005.00;5096041;28;20429;-65
2021/11/13 01:17:40;;;;;;;13.60;7.82;;;;;;;0.45;81.10;97004.97;5095996;28;20024;-66
2021/11/13 01:20:08;;;;;;;14.10;8.18;;;;;;;0.40;81.26;97001.50;5095704;28;20114;-67
2021/11/13 01:22:34;;;;;;;11.85;6.60;;;;;;;0.39;81.58;97001.50;5095898;28;20032;-66
2021/11/13 01:24:59;;;;;;;12.05;8.07;;;;;;;0.36;81.42;97002.34;5095791;28;20470;-65
2021/11/13 01:27:25;;;;;;;12.00;6.55;;;;;;;0.34;81.04;97002.31;5095762;28;20110;-67
2021/11/13 01:29:50;;;;;;;11.82;6.45;;;;;;;0.33;81.29;97012.59;5095623;28;20048;-66
2021/11/13 01:32:17;;;;;;;11.18;7.78;;;;;;;0.32;81.37;97005.69;5095677;28;20130;-64
2021/11/13 01:34:43;;;;;;;10.85;8.32;;;;;;;0.40;80.84;97008.34;5094251;28;20024;-68
2021/11/13 01:37:09;;;;;;;9.88;6.82;;;;;;;0.39;80.49;97004.91;5095658;28;20107;-65
2021/11/13 01:39:37;;;;;;;9.55;4.97;;;;;;;0.43;79.59;97008.41;5095505;28;20055;-68
2021/11/13 01:42:03;;;;;;;9.13;5.50;;;;;;;0.44;79.40;97000.69;5095305;28;20500;-65
2021/11/13 01:44:29;;;;;;;7.68;5.00;;;;;;;0.44;79.34;97007.53;5095437;28;20092;-65
2021/11/13 01:46:55;;;;;;;7.10;5.07;;;;;;;0.43;79.25;97008.41;5095313;28;20075;-64
2021/11/13 01:49:20;;;;;;;11.27;6.93;;;;;;;0.33;79.15;96999.72;5095375;28;20069;-65
2021/11/13 01:51:49;;;;;;;10.60;5.90;;;;;;;0.34;79.71;97007.47;5095397;28;20043;-68
2021/11/13 01:54:15;;;;;;;7.47;5.80;;;;;;;0.39;79.12;97004.06;5095159;28;20028;-64
2021/11/13 01:56:41;;;;;;;7.28;4.63;;;;;;;0.38;79.42;97016.06;5095190;28;20021;-68
2021/11/13 01:59:08;;;;;;;7.05;4.75;;;;;;;0.36;80.03;97015.22;5095101;28;20016;-64
2021/11/13 02:01:35;;;;;;;8.88;5.22;;;;;;;0.33;80.27;97021.16;5095001;28;20562;-64
2021/11/13 02:04:01;;;;;;;6.68;5.68;;;;;;;0.33;80.47;97015.16;5095082;28;20485;-66
2021/11/13 02:06:28;;;;;;;12.52;5.70;;;;;;;0.35;81.10;97016.03;5094953;28;20141;-67
2021/11/13 02:08:54;;;;;;;10.20;5.90;;;;;;;0.40;81.15;97016.97;5094979;28;20035;-63
2021/11/13 02:11:24;;;;;;;10.25;5.75;;;;;;;0.35;81.16;97011.75;5094954;28;20024;-64
2021/11/13 02:13:51;;;;;;;8.40;6.35;;;;;;;0.40;81.23;97011.81;5094984;28;20028;-65
2021/11/13 02:16:17;;;;;;;9.20;6.93;;;;;;;0.46;82.20;97008.44;5094710;28;20031;-67
2021/11/13 02:18:44;;;;;;;8.48;6.20;;;;;;;0.55;82.37;97007.66;5094474;28;20131;-64
2021/11/13 02:21:11;;;;;;;10.63;6.90;;;;;;;0.58;82.46;97002.53;5094597;28;20024;-61
2021/11/13 02:23:39;;;;;;;8.55;6.32;;;;;;;0.73;82.80;97005.22;5094661;28;20016;-64
2021/11/13 02:26:05;;;;;;;12.57;7.10;;;;;;;0.78;82.75;96994.97;5094615;28;20027;-67
2021/11/13 02:28:35;;;;;;;10.20;6.93;;;;;;;0.91;83.27;97005.38;5094473;28;20016;-62
2021/11/13 02:31:03;;;;;;;10.35;6.95;;;;;;;1.02;83.43;97002.88;5094631;28;20055;-63
2021/11/13 02:33:28;;;;;;;9.23;6.85;;;;;;;1.10;82.84;97008.94;5094418;28;20039;-66
2021/11/13 02:35:54;;;;;;;10.40;6.93;;;;;;;1.11;82.73;97002.94;5094590;28;20020;-64
2021/11/13 02:38:29;;;;;;;17.00;12.25;;;;;;;1.15;83.72;96999.53;5094443;28;20431;-67
2021/11/13 02:40:58;;;;;;;18.15;9.93;;;;;;;1.19;83.99;97001.28;5094247;28;20031;-68
2021/11/13 02:43:27;;;;;;;19.73;11.65;;;;;;;1.34;84.45;97003.09;5094309;28;20024;-65
2021/11/13 02:46:04;;;;;;;16.52;8.05;;;;;;;1.43;84.03;97006.56;5094313;28;20012;-63
2021/11/13 02:48:36;;;;;;;21.05;10.00;;;;;;;1.53;84.47;97003.19;5094313;28;20051;-66
2021/11/13 02:51:03;;;;;;;17.23;9.98;;;;;;;1.63;84.32;97004.97;5093687;28;20024;-63
2021/11/13 02:53:29;;;;;;;10.95;7.85;;;;;;;1.70;83.44;97007.56;5094021;28;20432;-66
2021/11/13 02:55:56;;;;;;;11.45;6.60;;;;;;;1.76;82.57;97002.44;5094133;28;20099;-64
2021/11/13 02:58:24;;;;;;;10.52;6.63;;;;;;;1.82;82.41;97010.22;5093979;28;20389;-62
2021/11/13 03:00:55;;;;;;;12.75;6.82;;;;;;;1.86;81.73;97003.34;5093954;28;20028;-65
2021/11/13 03:03:21;;;;;;;8.50;6.22;;;;;;;1.95;81.26;97007.69;5093955;28;20016;-63
2021/11/13 03:05:49;;;;;;;9.63;6.38;;;;;;;1.97;80.75;97008.56;5093844;28;20016;-62
2021/11/13 03:08:23;;;;;;;9.32;6.15;;;;;;;1.99;81.17;97009.44;5093774;28;20066;-64
2021/11/13 03:10:49;;;;;;;9.25;7.10;;;;;;;2.03;81.04;97013.75;5093864;28;20077;-63
2021/11/13 03:13:14;;;;;;;8.82;6.47;;;;;;;2.09;80.69;97013.78;5093815;28;20028;-66
2021/11/13 03:15:40;;;;;;;10.50;6.53;;;;;;;2.09;80.99;97015.47;5093759;28;20020;-65
2021/11/13 03:18:05;;;;;;;9.55;6.47;;;;;;;2.09;80.84;97018.06;5093583;28;20028;-62
2021/11/13 03:20:31;;;;;;;15.75;8.43;;;;;;;2.07;81.02;97012.88;5093420;28;20082;-65
2021/11/13 03:22:59;;;;;;;8.68;6.50;;;;;;;2.14;81.49;97014.63;5092395;28;20367;-66
2021/11/13 03:25:28;;;;;;;10.73;6.15;;;;;;;2.20;80.97;97012.94;5093610;28;20610;-63
2021/11/13 03:27:59;;;;;;;11.68;7.38;;;;;;;2.24;81.06;97015.53;5093473;28;20031;-64
2021/11/13 03:30:25;;;;;;;;;;;;;;;2.28;81.54;97013.81;5093916;28;20469;-67
2021/11/13 03:32:52;;;;;;;11.40;7.18;;;;;;;2.30;82.74;97016.41;5093459;28;20396;-67
2021/11/13 03:35:26;;;;;;;8.57;5.95;;;;;;;2.29;82.07;97014.69;5093582;28;20480;-65
2021/11/13 03:37:52;;;;;;;8.10;6.20;;;;;;;2.32;81.37;97014.69;5093413;28;20111;-67
2021/11/13 03:40:18;;;;;;;10.57;6.10;;;;;;;2.36;81.56;97016.41;5093259;28;20157;-64
2021/11/13 03:42:44;;;;;;;8.30;6.75;;;;;;;2.40;81.39;97020.72;5093380;28;20103;-67
2021/11/13 03:45:09;;;;;;;8.65;6.32;;;;;;;2.47;81.91;97019.88;5093235;28;20027;-67
2021/11/13 03:47:35;;;;;;;9.05;6.38;;;;;;;2.51;81.97;97019.03;5093216;28;20062;-64
2021/11/13 03:50:00;;;;;;;13.98;7.28;;;;;;;2.53;81.98;97006.13;5093367;28;20016;-67
2021/11/13 03:52:26;;;;;;;12.23;7.93;;;;;;;2.63;82.15;97012.16;5093211;28;20172;-66
2021/11/13 03:54:52;;;;;;;12.13;6.38;;;;;;;2.67;82.35;97011.31;5093146;28;20028;-64
2021/11/13 03:57:17;;;;;;;20.92;6.28;;;;;;;2.72;82.03;97009.59;5093088;28;20017;-63
2021/11/13 03:59:43;;;;;;;10.80;6.50;;;;;;;2.70;81.85;97011.31;5093086;28;20077;-68
2021/11/13 04:02:10;;;;;;;19.88;7.40;;;;;;;2.74;81.83;97017.34;5094375;28;20441;-63
2021/11/13 04:04:41;;;;;;;9.27;6.57;;;;;;;2.77;81.79;97015.63;5097275;28;20063;-63
2021/11/13 04:07:07;;;;;;;10.27;5.82;;;;;;;2.81;81.70;97016.50;5097310;28;20482;-63
2021/11/13 04:09:33;;;;;;;10.32;7.18;;;;;;;2.82;81.58;97014.75;5097251;28;20065;-66
2021/11/13 04:12:04;;;;;;;9.43;6.68;;;;;;;2.89;81.16;97024.25;5097272;28;20473;-66
2021/11/13 04:14:34;;;;;;;12.98;7.35;;;;;;;2.89;81.32;97019.94;5097279;28;20024;-65
2021/11/13 04:17:00;;;;;;;13.77;6.70;;;;;;;2.95;81.23;97015.63;5097180;28;20052;-63
2021/11/13 04:19:26;;;;;;;15.95;6.70;;;;;;;2.98;81.23;97029.41;5096846;28;20044;-63
2021/11/13 04:21:52;;;;;;;23.60;7.35;;;;;;;2.99;80.83;97025.97;5096870;28;20413;-63
2021/11/13 04:24:17;;;;;;;16.63;7.57;;;;;;;3.01;81.07;97029.41;5097033;28;20123;-64
2021/11/13 04:26:43;;;;;;;14.20;6.70;;;;;;;3.05;80.76;97032.00;5097020;28;20031;-67
2021/11/13 04:29:09;;;;;;;32.10;7.20;;;;;;;3.05;81.01;97037.16;5096818;28;20031;-64
2021/11/13 04:31:34;;;;;;;28.80;7.85;;;;;;;3.09;80.98;97038.88;5096982;28;20024;-65
2021/11/13 04:34:02;;;;;;;14.45;6.63;;;;;;;3.10;80.95;97041.47;5096879;28;20024;-67
2021/11/13 04:36:34;;;;;;;25.80;7.75;;;;;;;3.09;80.73;97042.34;5096785;28;20036;-64
2021/11/13 04:38:59;;;;;;;21.85;8.07;;;;;;;3.10;81.16;97040.63;5096778;28;20085;-64
2021/11/13 04:41:25;;;;;;;21.52;7.82;;;;;;;3.11;81.09;97043.22;5096556;28;20028;-65
2021/11/13 04:43:50;;;;;;;31.55;8.63;;;;;;;3.13;81.22;97040.63;5096574;28;20423;-66
2021/11/13 04:46:16;;;;;;;28.58;8.65;;;;;;;3.15;81.31;97044.06;5096554;28;20035;-66
2021/11/13 04:48:41;;;;;;;30.85;8.77;;;;;;;3.13;81.30;97036.31;5096445;28;20089;-65
2021/11/13 04:51:07;;;;;;;38.85;9.55;;;;;;;3.09;81.41;97037.16;5096507;28;20024;-65
2021/11/13 04:53:33;;;;;;;44.63;8.45;;;;;;;3.19;81.88;97042.34;5096458;28;20020;-65
2021/11/13 04:55:59;;;;;;;30.85;8.95;;;;;;;3.22;82.33;97047.53;5096350;28;20114;-65
2021/11/13 04:58:24;;;;;;;50.35;10.52;;;;;;;3.27;82.91;97050.94;5096276;28;20020;-64
2021/11/13 05:00:50;;;;;;;84.55;10.80;;;;;;;3.31;83.52;97047.50;5096167;28;20434;-64
2021/11/13 05:03:15;;;;;;;33.58;9.95;;;;;;;3.33;83.66;97042.31;5096265;28;20024;-68
2021/11/13 05:05:41;;;;;;;28.63;10.73;;;;;;;3.34;83.43;97044.91;5096154;28;20032;-64
2021/11/13 05:08:07;;;;;;;42.83;10.07;;;;;;;3.41;83.40;97051.78;5096148;28;20048;-65
2021/11/13 05:10:32;;;;;;;31.20;8.93;;;;;;;3.48;83.38;97056.97;5096146;28;20013;-65
2021/11/13 05:12:58;;;;;;;44.17;9.82;;;;;;;3.43;83.36;97050.94;5095665;28;20050;-63
2021/11/13 05:15:24;;;;;;;28.92;10.40;;;;;;;3.40;82.94;97051.78;5096116;28;20031;-64
2021/11/13 05:17:50;;;;;;;25.33;10.68;;;;;;;3.47;82.75;97063.88;5095989;28;20405;-62
2021/11/13 05:20:17;;;;;;;28.80;9.73;;;;;;;3.51;82.29;97063.00;5095527;28;20052;-65
2021/11/13 05:22:44;;;;;;;69.25;10.98;;;;;;;3.51;82.34;97064.72;5095798;28;20024;-66
2021/11/13 05:25:12;;;;;;;31.67;11.38;;;;;;;3.56;82.43;97075.06;5095918;28;20092;-67
2021/11/13 05:27:38;;;;;;;33.60;12.05;;;;;;;3.57;81.97;97067.28;5095894;28;20020;-65
2021/11/13 05:30:08;;;;;;;31.70;10.55;;;;;;;3.60;82.06;97072.47;5095689;28;20103;-63
2021/11/13 05:32:33;;;;;;;36.33;11.35;;;;;;;3.60;82.31;97074.19;5095667;28;20491;-66
2021/11/13 05:34:59;;;;;;;32.30;11.85;;;;;;;3.54;82.22;97073.34;5095584;28;20028;-64
2021/11/13 05:37:25;;;;;;;39.97;13.23;;;;;;;3.57;82.80;97071.59;5095598;28;20072;-65
2021/11/13 05:39:50;;;;;;;45.42;12.95;;;;;;;3.64;82.76;97081.06;5095538;28;20485;-64
2021/11/13 05:42:16;;;;;;;99.30;14.52;;;;;;;3.72;82.95;97094.00;5095361;28;20028;-67
2021/11/13 05:44:43;;;;;;;38.60;12.52;;;;;;;3.75;82.63;97086.25;5095521;28;20020;-65
2021/11/13 05:47:09;;;;;;;37.72;12.85;;;;;;;3.79;82.90;97088.81;5095540;28;20013;-64
2021/11/13 05:49:35;;;;;;;40.20;14.48;;;;;;;3.82;83.00;97093.13;5095441;28;20083;-65
2021/11/13 05:52:00;;;;;;;85.43;16.15;;;;;;;3.86;82.90;97091.41;5095391;28;20035;-64
2021/11/13 05:54:26;;;;;;;43.53;13.38;;;;;;;3.90;82.58;97104.34;5095293;28;20025;-64
2021/11/13 05:56:52;;;;;;;41.08;12.13;;;;;;;3.92;82.78;97104.34;5095242;28;20028;-63
2021/11/13 05:59:17;;;;;;;35.92;12.15;;;;;;;3.97;82.51;97101.75;5095160;28;20107;-65
2021/11/13 06:01:43;;;;;;;54.22;14.65;;;;;;;3.99;82.71;97115.53;5093795;28;20111;-62
2021/11/13 06:04:09;;;;;;;69.22;13.65;;;;;;;3.93;82.36;97106.06;5095046;28;20032;-64
2021/11/13 06:06:35;;;;;;;40.08;13.30;;;;;;;3.99;82.55;97120.69;5094959;28;20422;-65
2021/11/13 06:09:01;;;;;;;29.83;12.65;;;;;;;4.00;82.45;97119.84;5095076;28;20020;-65
2021/11/13 06:11:26;;;;;;;46.38;13.40;;;;;;;4.02;82.88;97118.09;5094906;28;20393;-62
2021/11/13 06:13:52;;;;;;;37.92;14.50;;;;;;;4.06;82.44;97114.63;5094767;28;20056;-66
2021/11/13 06:16:17;;;;;;;50.13;14.60;;;;;;;4.12;82.55;97126.72;5094795;28;20051;-62
2021/11/13 06:18:43;;;;;;;37.63;13.43;;;;;;;4.21;82.36;97120.66;5094598;28;20043;-66
2021/11/13 06:21:09;;;;;;;45.60;16.25;;;;;;;4.22;82.65;97132.72;5094641;28;20119;-62
2021/11/13 06:23:36;;;;;;;45.55;17.60;;;;;;;4.28;82.44;97125.78;5094764;28;20020;-64
2021/11/13 06:26:02;;;;;;;44.15;18.65;;;;;;;4.32;82.45;97121.47;5093895;28;20373;-62
2021/11/13 06:28:28;;;;;;;62.20;23.40;;;;;;;4.37;82.47;97127.47;5094592;28;20423;-67
2021/11/13 06:30:54;;;;;;;52.15;21.08;;;;;;;4.37;82.26;97127.47;5094440;28;20028;-65
2021/11/13 06:33:19;;;;;;;56.45;20.77;;;;;;;4.45;82.45;97124.03;5094497;28;20020;-66
2021/11/13 06:35:45;;;;;;;50.00;20.48;;;;;;;4.52;82.50;97129.16;5094474;28;20099;-63
2021/11/13 06:38:11;;;;;;;49.65;21.80;;;;;;;4.57;82.75;97123.94;5094539;28;20031;-64
2021/11/13 06:40:37;;;;;;;44.72;20.73;;;;;;;4.62;83.04;97123.94;5094319;28;20043;-64
2021/11/13 06:43:03;;;;;;;224.93;74.80;;;;;;;4.69;83.14;97120.44;5094297;28;20024;-64
2021/11/13 06:45:28;;;;;;;145.45;63.83;;;;;;;4.74;83.18;97116.09;5094245;28;20031;-65
2021/11/13 06:47:54;;;;;;;76.20;34.70;;;;;;;4.83;82.94;97122.09;5094222;28;20382;-64
2021/11/13 06:50:20;;;;;;;46.40;23.17;;;;;;;4.90;83.09;97126.38;5094185;28;20016;-64
2021/11/13 06:52:47;;;;;;;45.47;18.58;;;;;;;4.96;82.99;97128.09;5094219;28;20381;-65
2021/11/13 06:55:13;;;;;;;38.10;16.83;;;;;;;5.02;82.81;97121.13;5094065;28;20416;-62
2021/11/13 06:57:40;;;;;;;36.25;16.52;;;;;;;5.10;82.90;97123.66;5094024;28;20027;-66
2021/11/13 07:00:09;;;;;;;32.47;16.20;;;;;;;5.17;82.42;97119.28;5093973;28;20016;-64
2021/11/13 07:02:35;;;;;;;37.70;16.85;;;;;;;5.24;82.73;97117.53;5093896;28;20553;-63
2021/11/13 07:05:01;;;;;;;39.20;14.07;;;;;;;5.21;83.35;97120.13;5093998;28;20108;-63
2021/11/13 07:07:27;;;;;;;39.08;15.20;;;;;;;5.24;83.42;97120.13;5093818;28;20020;-66
2021/11/13 07:09:53;;;;;;;142.10;67.03;;;;;;;5.17;83.35;97122.75;5093777;28;20065;-64
2021/11/13 07:12:18;;;;;;;56.58;25.17;;;;;;;5.16;83.08;97126.22;5093880;28;20075;-63
2021/11/13 07:14:44;;;;;;;40.22;14.65;;;;;;;5.22;83.13;97116.66;5093632;28;20012;-62
2021/11/13 07:17:09;;;;;;;26.20;13.63;;;;;;;5.25;82.81;97119.22;5093837;28;20378;-64
2021/11/13 07:19:35;;;;;;;34.72;13.85;;;;;;;5.27;82.76;97120.94;5093288;28;20048;-66
2021/11/13 07:22:01;;;;;;;36.55;14.43;;;;;;;5.35;82.14;97123.47;5093504;28;20107;-66
2021/11/13 07:24:28;;;;;;;30.80;14.02;;;;;;;5.41;82.50;97127.75;5093593;28;20051;-65
2021/11/13 07:26:53;;;;;;;36.88;18.00;;;;;;;5.44;82.49;97126.00;5093580;28;20024;-65
2021/11/13 07:29:25;;;;;;;49.63;27.45;;;;;;;5.50;82.32;97126.81;5093597;28;20016;-66
2021/11/13 07:31:51;;;;;;;37.58;21.05;;;;;;;5.44;82.52;97127.72;5093613;28;20016;-64
2021/11/13 07:34:17;;;;;;;30.00;13.82;;;;;;;5.33;82.87;97126.97;5093392;28;20050;-66
2021/11/13 07:36:43;;;;;;;29.38;14.55;;;;;;;5.30;82.85;97127.84;5093250;28;20052;-62
2021/11/13 07:39:09;;;;;;;26.00;13.95;;;;;;;5.30;82.97;97131.28;5093405;28;20449;-62
2021/11/13 07:41:34;;;;;;;100.65;57.25;;;;;;;5.40;82.80;97132.09;5093290;28;20056;-65
2021/11/13 07:44:00;;;;;;;33.80;20.42;;;;;;;5.47;83.00;97125.13;5093297;28;20042;-62
2021/11/13 07:46:26;;;;;;;26.60;16.15;;;;;;;5.59;83.06;97131.06;5093194;28;20028;-64
2021/11/13 07:48:52;;;;;;;25.73;14.27;;;;;;;5.66;82.70;97127.56;5093403;28;20485;-63
2021/11/13 07:51:20;;;;;;;29.48;15.32;;;;;;;5.76;83.09;97128.34;5093250;28;20017;-66
2021/11/13 07:53:47;;;;;;;33.78;18.38;;;;;;;5.84;83.06;97130.88;5093300;28;20032;-64
2021/11/13 07:56:14;;;;;;;32.53;20.58;;;;;;;5.93;82.74;97128.19;5093112;28;20024;-64
2021/11/13 07:58:39;;;;;;;41.63;27.23;;;;;;;6.02;82.64;97128.06;5093218;28;20024;-64
2021/11/13 08:01:05;;;;;;;46.10;28.45;;;;;;;6.07;82.43;97126.31;5093024;28;20028;-63
2021/11/13 08:03:30;;;;;;;31.88;23.45;;;;;;;6.20;82.55;97133.97;5093223;28;20016;-65
2021/11/13 08:05:56;;;;;;;37.47;23.00;;;;;;;6.30;82.08;97135.59;5093192;28;20027;-67
2021/11/13 08:08:22;;;;;;;35.40;20.60;;;;;;;6.44;81.63;97134.56;5093110;28;20381;-66
2021/11/13 08:10:47;;;;;;;31.02;20.98;;;;;;;6.56;81.41;97134.44;5093043;28;20032;-65
2021/11/13 08:13:17;;;;;;;33.83;20.45;;;;;;;6.65;81.30;97135.22;5092960;28;20028;-65
2021/11/13 08:15:43;;;;;;;30.65;19.77;;;;;;;6.76;80.75;97138.53;5092954;28;20051;-64
2021/11/13 08:18:09;;;;;;;33.40;20.17;;;;;;;6.83;80.65;97131.47;5092923;28;20020;-62
2021/11/13 08:20:37;;;;;;;30.70;19.58;;;;;;;6.78;80.09;97134.16;5092872;28;20208;-65
2021/11/13 08:23:04;;;;;;;30.33;18.73;;;;;;;6.90;79.41;97133.16;5092943;28;20031;-63
2021/11/13 08:25:32;;;;;;;25.48;18.17;;;;;;;6.97;78.67;97136.50;5092823;28;20154;-63
2021/11/13 08:27:58;;;;;;;29.48;18.45;;;;;;;7.05;77.88;97136.41;5092873;28;20039;-65
2021/11/13 08:30:28;;;;;;;34.50;20.77;;;;;;;7.11;78.09;97135.44;5092846;28;20020;-64
2021/11/13 08:32:54;;;;;;;32.88;24.98;;;;;;;7.04;78.37;97139.88;5092820;28;20036;-62
2021/11/13 08:35:20;;;;;;;26.45;19.98;;;;;;;7.07;78.32;97143.28;5092834;28;20505;-66
2021/11/13 08:37:46;;;;;;;34.35;25.40;;;;;;;7.10;78.12;97149.34;5092808;28;20024;-65
2021/11/13 08:40:13;;;;;;;25.02;20.20;;;;;;;7.07;78.45;97151.09;5092800;28;20157;-61
2021/11/13 08:42:39;;;;;;;28.55;20.77;;;;;;;7.01;78.49;97153.78;5092590;28;20493;-61
2021/11/13 08:45:07;;;;;;;27.80;20.23;;;;;;;6.93;78.96;97151.28;5092738;28;20071;-65
2021/11/13 08:47:35;;;;;;;28.55;19.92;;;;;;;6.91;78.77;97157.38;5092921;28;20031;-65
2021/11/13 08:50:03;;;;;;;29.40;19.90;;;;;;;6.81;78.93;97157.50;5096518;28;20485;-64
2021/11/13 08:52:29;;;;;;;34.35;22.98;;;;;;;6.69;79.25;97153.31;5096603;28;20055;-66
2021/11/13 08:54:54;;;;;;;29.83;22.35;;;;;;;6.70;79.49;97152.47;5096373;28;20378;-65
2021/11/13 08:57:20;;;;;;;26.98;20.30;;;;;;;6.83;79.13;97150.56;5096348;28;20414;-66
2021/11/13 08:59:46;;;;;;;30.17;21.25;;;;;;;6.89;79.00;97148.78;5096183;28;20550;-63
2021/11/13 09:02:18;;;;;;;66.40;40.60;;;;;;;6.91;79.44;97152.19;5096162;28;20028;-65
2021/11/13 09:04:47;;;;;;;31.60;23.25;;;;;;;6.94;78.95;97154.75;5096243;28;20024;-63
2021/11/13 09:07:13;;;;;;;30.80;21.90;;;;;;;6.91;79.15;97154.78;5096213;28;20020;-61
2021/11/13 09:09:40;;;;;;;31.83;23.83;;;;;;;6.90;79.72;97153.09;5096060;28;20031;-64
2021/11/13 09:12:09;;;;;;;34.35;24.85;;;;;;;7.02;79.51;97144.25;5095976;28;20024;-67
2021/11/13 09:14:36;;;;;;;30.60;21.83;;;;;;;7.02;78.77;97144.25;5096030;28;20153;-63
2021/11/13 09:17:02;;;;;;;33.55;21.85;;;;;;;7.16;78.11;97134.50;5096047;28;20024;-63
2021/11/13 09:19:28;;;;;;;24.33;19.58;;;;;;;7.29;77.73;97136.91;5095669;28;20490;-65
2021/11/13 09:21:55;;;;;;;25.95;20.17;;;;;;;7.36;76.74;97127.25;5095694;28;20032;-61
2021/11/13 09:24:22;;;;;;;21.42;16.58;;;;;;;7.42;75.57;97124.56;5095990;28;20031;-62
2021/11/13 09:26:48;;;;;;;28.02;17.70;;;;;;;7.42;75.69;97122.84;5095764;28;20051;-65
2021/11/13 09:29:14;;;;;;;30.67;21.95;;;;;;;7.40;76.33;97119.38;5095859;28;20102;-66
2021/11/13 09:31:43;;;;;;;36.20;27.10;;;;;;;7.44;76.74;97113.22;5095697;28;20023;-62
2021/11/13 09:34:11;;;;;;;33.85;25.25;;;;;;;7.38;77.07;97110.75;5095632;28;20023;-64
2021/11/13 09:36:36;;;;;;;33.15;22.83;;;;;;;7.36;76.36;97107.31;5095646;28;20112;-62
2021/11/13 09:39:03;;;;;;;28.55;21.70;;;;;;;7.37;76.36;97109.00;5095668;28;20056;-62
2021/11/13 09:41:29;;;;;;;33.72;20.80;;;;;;;7.46;75.65;97108.00;5094335;28;20077;-64
2021/11/13 09:43:55;;;;;;;30.65;20.67;;;;;;;7.52;75.48;97113.13;5095758;28;20028;-63
2021/11/13 09:46:21;;;;;;;44.28;26.13;;;;;;;7.55;74.79;97112.19;5095411;28;20036;-63
2021/11/13 09:48:52;;;;;;;26.17;18.23;;;;;;;7.49;74.76;97107.97;5095374;28;20020;-67
2021/11/13 09:51:20;;;;;;;24.67;19.08;;;;;;;7.57;74.49;97098.28;5095357;28;20032;-66
2021/11/13 09:53:47;;;;;;;22.30;17.90;;;;;;;7.62;74.01;97093.00;5095267;28;20044;-63
2021/11/13 09:56:13;;;;;;;24.15;18.17;;;;;;;7.67;73.97;97092.91;5093940;28;20382;-66
2021/11/13 09:58:39;;;;;;;26.63;17.90;;;;;;;7.65;74.05;97092.94;5094790;28;20028;-66
2021/11/13 10:01:05;;;;;;;24.70;17.23;;;;;;;7.63;75.25;97089.50;5094209;28;20351;-62
2021/11/13 10:03:31;;;;;;;24.73;18.27;;;;;;;7.68;74.89;97081.63;5095053;28;20023;-62
2021/11/13 10:06:00;;;;;;;22.75;16.35;;;;;;;7.79;74.04;97084.00;5095099;28;20103;-62
2021/11/13 10:08:26;;;;;;;24.90;17.15;;;;;;;7.90;73.90;97079.47;5095044;28;20081;-63
2021/11/13 10:11:01;;;;;;;22.88;16.88;;;;;;;8.01;73.57;97081.84;5094946;28;20024;-65
2021/11/13 10:13:34;;;;;;;24.90;18.10;;;;;;;7.90;73.69;97081.22;5094943;28;20036;-63
2021/11/13 10:16:14;;;;;;;32.75;21.85;;;;;;;7.89;73.98;97076.91;5094951;28;20483;-66
2021/11/13 10:18:44;;;;;;;31.95;22.38;;;;;;;7.91;73.94;97067.28;5094682;28;20036;-63
2021/11/13 10:21:19;;;;;;;22.92;15.18;;;;;;;7.99;73.71;97068.03;5094717;28;20090;-61
2021/11/13 10:23:52;;;;;;;29.73;19.65;;;;;;;7.97;73.16;97068.06;5094769;28;20020;-64
2021/11/13 10:26:21;;;;;;;21.98;17.85;;;;;;;7.82;73.33;97065.72;5094741;28;20027;-61
2021/11/13 10:29:03;;;;;;;26.00;18.88;;;;;;;7.72;73.84;97062.44;5094932;28;20090;-63
2021/11/13 10:31:32;;;;;;;24.13;17.90;;;;;;;7.76;73.62;97064.09;5094637;28;20055;-64
2021/11/13 10:34:12;;;;;;;27.23;19.52;;;;;;;7.86;73.97;97058.72;5094404;28;20378;-67
2021/11/13 10:36:52;;;;;;;26.40;19.40;;;;;;;7.97;73.60;97060.22;5094658;28;20031;-64
2021/11/13 10:39:21;;;;;;;20.20;12.77;;;;;;;8.08;72.90;97056.56;5094564;28;20370;-62
2021/11/13 10:42:13;;;;;;;21.67;16.27;;;;;;;8.08;72.55;97059.16;5094274;28;20284;-62
2021/11/13 10:44:46;;;;;;;21.73;17.73;;;;;;;8.11;72.27;97059.09;5094376;28;20032;-62
2021/11/13 10:47:28;;;;;;;26.15;19.35;;;;;;;8.16;72.94;97056.41;5094337;28;20100;-65
2021/11/13 10:50:11;;;;;;;26.80;19.92;;;;;;;8.22;71.60;97049.31;5094324;28;20031;-62
2021/11/13 10:52:36;;;;;;;28.40;18.60;;;;;;;8.25;71.90;97052.75;5094229;28;20028;-63
2021/11/13 10:55:02;;;;;;;26.48;19.02;;;;;;;8.19;72.28;97058.97;5094211;28;20028;-65
2021/11/13 10:57:30;;;;;;;29.92;20.35;;;;;;;8.16;72.09;97051.19;5094061;28;20028;-67
2021/11/13 11:00:16;;;;;;;23.40;18.98;;;;;;;8.17;72.64;97048.56;5094038;28;20393;-66
2021/11/13 11:02:42;;;;;;;30.67;17.58;;;;;;;8.21;72.70;97046.75;5094028;28;20056;-64
2021/11/13 11:05:17;;;;;;;23.00;16.85;;;;;;;8.34;72.09;97040.38;5094012;28;20019;-62
2021/11/13 11:07:43;;;;;;;29.00;18.42;;;;;;;8.47;72.59;97038.38;5094069;28;20603;-66
2021/11/13 11:10:13;;;;;;;23.27;17.83;;;;;;;8.57;71.23;97031.25;5093720;28;20020;-63
2021/11/13 11:12:40;;;;;;;21.73;16.45;;;;;;;8.57;70.70;97038.19;5093701;28;20389;-64
2021/11/13 11:15:13;;;;;;;22.23;15.02;;;;;;;8.52;71.05;97029.59;5093849;28;20028;-62
2021/11/13 11:17:42;;;;;;;22.27;16.52;;;;;;;8.64;70.49;97026.75;5093792;28;20442;-66
2021/11/13 11:20:12;;;;;;;19.08;15.90;;;;;;;8.76;69.97;97019.53;5093608;28;20056;-66
2021/11/13 11:22:38;;;;;;;22.05;15.48;;;;;;;8.83;69.61;97015.91;5093674;28;20390;-60
2021/11/13 11:25:07;;;;;;;19.75;14.13;;;;;;;8.91;68.05;97007.91;5093644;28;20077;-65
2021/11/13 11:27:34;;;;;;;21.38;15.52;;;;;;;8.80;68.92;97000.31;5093514;28;20524;-62
2021/11/13 11:30:13;;;;;;;19.00;14.15;;;;;;;8.82;68.96;96995.94;5093615;28;20131;-66